createdAt,value
2022-10-05T00:01:00.810Z,8.8
2022-10-05T00:03:00.506Z,9
2022-10-05T00:08:59.991Z,9.1
2022-10-05T00:13:00.939Z,9.1
2022-10-05T00:14:56.091Z,9.1
2022-10-05T00:18:59.983Z,9.1
2022-10-05T00:21:01.261Z,9.3
2022-10-05T00:23:00.900Z,9.5
2022-10-05T00:25:02.161Z,9.4
2022-10-05T00:27:00.611Z,9.4
2022-10-05T00:29:01.121Z,9.4
2022-10-05T00:31:00.550Z,9.4
2022-10-05T00:32:59.749Z,9.3
2022-10-05T00:35:01.328Z,9.2
2022-10-05T00:37:01.493Z,9.2
2022-10-05T00:38:56.188Z,9.1
2022-10-05T00:43:04.024Z,9.2
2022-10-05T00:45:03.914Z,9.1
2022-10-05T00:49:02.431Z,9
2022-10-05T00:50:59.190Z,9
2022-10-05T00:53:00.934Z,9
2022-10-05T00:55:00.771Z,9
2022-10-05T00:57:00.679Z,8.8
2022-10-05T00:59:01.030Z,8.8
2022-10-05T01:01:00.805Z,8.7
2022-10-05T01:02:57.922Z,8.8
2022-10-05T01:05:01.592Z,8.8
2022-10-05T01:07:00.996Z,8.8
2022-10-05T01:09:00.921Z,8.8
2022-10-05T01:11:00.613Z,8.7
2022-10-05T01:13:00.838Z,8.6
2022-10-05T01:14:59.576Z,8.5
2022-10-05T01:17:00.725Z,8.4
2022-10-05T01:19:00.634Z,8.4
2022-10-05T01:21:00.766Z,8.4
2022-10-05T01:23:01.399Z,8.4
2022-10-05T01:25:04.328Z,8.4
2022-10-05T01:27:01.077Z,8.5
2022-10-05T01:31:00.927Z,8.4
2022-10-05T01:33:00.644Z,8.2
2022-10-05T01:34:59.935Z,8.3
2022-10-05T01:37:00.816Z,8.2
2022-10-05T01:39:00.375Z,8.4
2022-10-05T01:43:07.054Z,8.6
2022-10-05T01:44:57.474Z,8.5
2022-10-05T01:47:01.081Z,8.5
2022-10-05T01:48:59.818Z,8.6
2022-10-05T01:51:01.022Z,8.5
2022-10-05T01:53:00.720Z,8.5
2022-10-05T01:55:00.807Z,8.6
2022-10-05T01:57:00.436Z,8.6
2022-10-05T01:59:00.760Z,8.5
2022-10-05T02:01:04.268Z,8.5
2022-10-05T02:02:56.034Z,8.6
2022-10-05T02:05:02.470Z,8.6
2022-10-05T02:07:00.866Z,8.7
2022-10-05T02:09:00.369Z,8.5
2022-10-05T02:11:00.957Z,8.5
2022-10-05T02:12:59.939Z,8.3
2022-10-05T02:14:58.238Z,8.2
2022-10-05T02:17:00.624Z,8.1
2022-10-05T02:19:01.382Z,8
2022-10-05T02:21:04.166Z,7.9
2022-10-05T02:25:00.809Z,7.9
2022-10-05T02:27:01.119Z,7.7
2022-10-05T02:28:59.163Z,7.7
2022-10-05T02:31:00.766Z,7.6
2022-10-05T02:33:00.963Z,7.7
2022-10-05T02:35:01.087Z,7.7
2022-10-05T02:36:57.807Z,7.7
2022-10-05T02:39:00.690Z,7.7
2022-10-05T02:41:01.113Z,7.6
2022-10-05T02:43:00.792Z,7.6
2022-10-05T02:44:56.681Z,7.6
2022-10-05T02:47:02.473Z,7.7
2022-10-05T02:49:00.779Z,7.6
2022-10-05T02:51:07.485Z,7.4
2022-10-05T02:55:01.169Z,7.3
2022-10-05T02:56:58.038Z,7.4
2022-10-05T02:58:59.888Z,7.5
2022-10-05T03:01:01.462Z,7.6
2022-10-05T03:02:55.251Z,7.5
2022-10-05T03:07:01.185Z,7.6
2022-10-05T03:08:58.273Z,7.6
2022-10-05T03:11:00.039Z,7.6
2022-10-05T03:15:00.041Z,7.6
2022-10-05T03:16:59.595Z,7.6
2022-10-05T03:19:00.528Z,7.6
2022-10-05T03:21:00.506Z,7.5
2022-10-05T03:23:00.877Z,7.5
2022-10-05T03:25:01.301Z,7.4
2022-10-05T03:27:00.115Z,7.3
2022-10-05T03:29:00.854Z,7.3
2022-10-05T03:31:01.671Z,7.3
2022-10-05T03:32:59.164Z,7.3
2022-10-05T03:35:01.310Z,7.3
2022-10-05T03:37:00.782Z,7.3
2022-10-05T03:38:57.689Z,7.3
2022-10-05T03:43:02.298Z,7.3
2022-10-05T03:44:57.809Z,7.4
2022-10-05T03:47:00.804Z,7.3
2022-10-05T03:49:00.202Z,7.2
2022-10-05T03:50:59.121Z,7.3
2022-10-05T03:53:00.831Z,7.1
2022-10-05T03:55:01.087Z,7
2022-10-05T03:56:57.850Z,6.9
2022-10-05T03:59:02.550Z,6.9
2022-10-05T04:01:00.853Z,7.1
2022-10-05T04:03:01.375Z,7
2022-10-05T04:05:00.768Z,7.1
2022-10-05T04:07:04.713Z,7.2
2022-10-05T04:08:57.426Z,7.2
2022-10-05T04:11:01.109Z,7.2
2022-10-05T04:13:00.991Z,7.1
2022-10-05T04:15:00.620Z,7.1
2022-10-05T04:17:00.584Z,7.2
2022-10-05T04:19:01.123Z,7.3
2022-10-05T04:21:00.839Z,7.2
2022-10-05T04:25:01.071Z,6.9
2022-10-05T04:27:00.736Z,6.7
2022-10-05T04:29:04.037Z,6.6
2022-10-05T04:31:00.755Z,6.6
2022-10-05T04:33:00.837Z,6.8
2022-10-05T04:35:01.013Z,6.9
2022-10-05T04:37:01.616Z,7
2022-10-05T04:39:01.113Z,7
2022-10-05T04:41:01.298Z,6.6
2022-10-05T04:42:58.611Z,6.6
2022-10-05T04:45:01.082Z,6.7
2022-10-05T04:47:00.325Z,6.9
2022-10-05T04:49:04.008Z,6.9
2022-10-05T04:50:58.668Z,7
2022-10-05T04:53:00.687Z,6.9
2022-10-05T04:57:05.795Z,7
2022-10-05T04:59:00.666Z,7
2022-10-05T05:02:57.518Z,6.9
2022-10-05T05:05:00.755Z,7
2022-10-05T05:09:09.370Z,6.9
2022-10-05T05:11:00.116Z,6.9
2022-10-05T05:13:00.803Z,7
2022-10-05T05:15:04.940Z,7.2
2022-10-05T05:17:00.516Z,7.1
2022-10-05T05:19:01.161Z,7.3
2022-10-05T05:20:59.147Z,7.2
2022-10-05T05:26:56.399Z,7.3
2022-10-05T05:29:02.562Z,7.3
2022-10-05T05:31:00.570Z,7.3
2022-10-05T05:33:01.232Z,7.3
2022-10-05T05:37:00.599Z,7.6
2022-10-05T05:38:57.529Z,7.6
2022-10-05T05:41:00.550Z,7.6
2022-10-05T05:43:00.837Z,7.6
2022-10-05T05:44:56.426Z,7.6
2022-10-05T05:47:04.716Z,7.7
2022-10-05T05:51:00.889Z,7.9
2022-10-05T05:55:00.920Z,7.9
2022-10-05T05:57:03.626Z,8
2022-10-05T06:02:56.210Z,8.1
2022-10-05T06:05:02.381Z,8.1
2022-10-05T06:07:01.139Z,8.1
2022-10-05T06:08:57.781Z,8.2
2022-10-05T06:11:00.782Z,8.1
2022-10-05T06:13:01.909Z,8.2
2022-10-05T06:15:00.614Z,8.3
2022-10-05T06:17:00.754Z,8.4
2022-10-05T06:19:00.770Z,8.5
2022-10-05T06:21:00.042Z,8.5
2022-10-05T06:22:59.596Z,8.6
2022-10-05T06:25:01.280Z,8.7
2022-10-05T06:27:00.231Z,8.6
2022-10-05T06:29:01.139Z,8.8
2022-10-05T06:31:04.721Z,8.8
2022-10-05T06:32:59.464Z,8.9
2022-10-05T06:35:01.513Z,9
2022-10-05T06:37:03.087Z,8.9
2022-10-05T06:38:58.379Z,9
2022-10-05T06:41:00.621Z,9
2022-10-05T06:44:57.828Z,9.2
2022-10-05T06:47:01.015Z,9.3
2022-10-05T06:49:00.993Z,9.4
2022-10-05T06:51:00.862Z,9.6
2022-10-05T06:53:00.774Z,9.7
2022-10-05T06:55:00.879Z,9.8
2022-10-05T06:56:59.678Z,10.1
2022-10-05T07:01:01.466Z,11.1
2022-10-05T07:02:56.477Z,13.7
2022-10-05T07:05:00.756Z,13.7
2022-10-05T07:06:59.925Z,13.7
2022-10-05T07:08:57.318Z,13.8
2022-10-05T07:11:00.894Z,13.8
2022-10-05T07:13:02.617Z,14
2022-10-05T07:14:57.721Z,14.1
2022-10-05T07:19:01.383Z,14.3
2022-10-05T07:20:58.425Z,14.3
2022-10-05T07:26:57.946Z,14.6
2022-10-05T07:28:59.768Z,14.5
2022-10-05T07:31:01.732Z,14.3
2022-10-05T07:32:59.901Z,14.3
2022-10-05T07:35:01.641Z,14.4
2022-10-05T07:37:01.483Z,14.5
2022-10-05T07:39:04.158Z,14.6
2022-10-05T07:41:01.955Z,14.9
2022-10-05T07:43:01.717Z,15.1
2022-10-05T07:44:56.363Z,15.2
2022-10-05T07:47:01.541Z,15.5
2022-10-05T07:49:01.428Z,15.7
2022-10-05T07:50:57.734Z,15.8
2022-10-05T07:53:01.611Z,15.9
2022-10-05T07:55:01.477Z,15.9
2022-10-05T07:57:01.947Z,15.8
2022-10-05T08:03:00.932Z,15.6
2022-10-05T08:05:01.493Z,15.5
2022-10-05T08:08:57.352Z,15.5
2022-10-05T08:11:02.111Z,15.6
2022-10-05T08:13:01.149Z,15.5
2022-10-05T08:15:01.763Z,15.5
2022-10-05T08:19:01.675Z,15.6
2022-10-05T08:21:01.475Z,15.7
2022-10-05T08:23:01.601Z,15.8
2022-10-05T08:25:01.625Z,15.8
2022-10-05T08:26:56.254Z,15.8
2022-10-05T08:29:02.085Z,15.9
2022-10-05T08:34:20.346Z,16
2022-10-05T08:39:26.592Z,16
2022-10-05T08:44:45.484Z,16
2022-10-05T08:51:10.428Z,16
2022-10-05T08:53:05.818Z,15.9
2022-10-05T08:55:07.291Z,15.7
2022-10-05T08:57:08.443Z,15.8
2022-10-05T08:59:09.017Z,15.9
2022-10-05T09:01:07.588Z,15.9
2022-10-05T09:03:09.306Z,15.9
2022-10-05T09:05:08.517Z,15.9
2022-10-05T09:07:06.821Z,15.9
2022-10-05T09:09:09.579Z,16
2022-10-05T09:11:06.409Z,15.9
2022-10-05T09:13:09.677Z,15.8
2022-10-05T09:15:24.660Z,15.8
2022-10-05T09:17:08.810Z,15.8
2022-10-05T09:19:09.258Z,15.9
2022-10-05T09:21:09.387Z,15.9
2022-10-05T09:23:07.538Z,16
2022-10-05T09:25:07.887Z,16
2022-10-05T09:27:06.201Z,16.1
2022-10-05T09:29:07.323Z,16.2
2022-10-05T09:31:08.270Z,16.2
2022-10-05T09:33:07.173Z,16.2
2022-10-05T09:35:07.560Z,16.2
2022-10-05T09:37:09.611Z,16.2
2022-10-05T09:39:05.246Z,16.3
2022-10-05T09:41:09.213Z,16.4
2022-10-05T09:43:08.365Z,16.3
2022-10-05T09:45:05.172Z,16.3
2022-10-05T09:47:07.074Z,16.4
2022-10-05T09:49:09.306Z,16.4
2022-10-05T09:51:08.598Z,16.4
2022-10-05T09:53:09.295Z,16.5
2022-10-05T09:55:13.501Z,16.4
2022-10-05T09:59:09.370Z,16.4
2022-10-05T10:01:15.647Z,16.5
2022-10-05T10:03:09.548Z,16.5
2022-10-05T10:05:07.986Z,16.5
2022-10-05T10:07:08.255Z,16.5
2022-10-05T10:09:09.307Z,16.6
2022-10-05T10:11:09.267Z,16.6
2022-10-05T10:13:06.456Z,16.6
2022-10-05T10:15:10.189Z,16.6
2022-10-05T10:17:09.783Z,16.7
2022-10-05T10:19:08.406Z,16.7
2022-10-05T10:21:09.353Z,16.7
2022-10-05T10:23:04.500Z,16.7
2022-10-05T10:25:08.750Z,16.7
2022-10-05T10:27:09.185Z,16.7
2022-10-05T10:29:09.962Z,16.8
2022-10-05T10:31:09.248Z,16.8
2022-10-05T10:33:07.485Z,16.8
2022-10-05T10:35:06.459Z,16.8
2022-10-05T10:37:07.877Z,16.8
2022-10-05T10:39:06.580Z,16.8
2022-10-05T10:41:08.824Z,16.8
2022-10-05T10:43:08.106Z,16.8
2022-10-05T10:45:05.436Z,16.9
2022-10-05T10:47:08.272Z,16.9
2022-10-05T10:49:04.821Z,16.9
2022-10-05T10:51:08.159Z,17
2022-10-05T10:53:07.516Z,17
2022-10-05T10:55:08.484Z,17
2022-10-05T10:57:09.145Z,17
2022-10-05T10:59:09.155Z,17
2022-10-05T11:01:09.303Z,17
2022-10-05T11:03:08.479Z,17.1
2022-10-05T11:05:05.233Z,17.1
2022-10-05T11:07:08.258Z,17.1
2022-10-05T11:09:07.798Z,17.2
2022-10-05T11:11:07.891Z,17.1
2022-10-05T11:13:06.617Z,17.1
2022-10-05T11:15:07.206Z,17.1
2022-10-05T11:17:08.871Z,17.1
2022-10-05T11:19:09.349Z,17.2
2022-10-05T11:21:07.689Z,17.2
2022-10-05T11:23:08.213Z,17.2
2022-10-05T11:25:09.832Z,17.2
2022-10-05T11:27:09.541Z,17.3
2022-10-05T11:29:08.835Z,17.3
2022-10-05T11:31:09.316Z,17.3
2022-10-05T11:33:05.197Z,17.4
2022-10-05T11:35:09.481Z,17.4
2022-10-05T11:37:08.250Z,17.4
2022-10-05T11:39:09.236Z,17.4
2022-10-05T11:41:07.958Z,17.4
2022-10-05T11:43:08.413Z,17.4
2022-10-05T11:45:08.644Z,17.4
2022-10-05T11:47:05.568Z,17.5
2022-10-05T11:49:09.287Z,17.5
2022-10-05T11:51:06.821Z,17.5
2022-10-05T11:53:09.565Z,17.5
2022-10-05T11:55:11.570Z,17.5
2022-10-05T11:57:10.048Z,17.5
2022-10-05T11:59:06.632Z,17.5
2022-10-05T12:01:09.635Z,17.5
2022-10-05T12:03:07.992Z,17.5
2022-10-05T12:05:09.300Z,17.5
2022-10-05T12:07:10.633Z,17.5
2022-10-05T12:09:05.240Z,17.6
2022-10-05T12:11:06.947Z,17.6
2022-10-05T12:13:07.053Z,17.6
2022-10-05T12:15:08.956Z,17.6
2022-10-05T12:17:05.380Z,17.6
2022-10-05T12:19:08.770Z,17.6
2022-10-05T12:21:09.738Z,17.6
2022-10-05T12:23:07.661Z,17.6
2022-10-05T12:25:08.819Z,17.7
2022-10-05T12:27:09.584Z,17.7
2022-10-05T12:29:09.867Z,17.7
2022-10-05T12:31:08.124Z,17.7
2022-10-05T12:33:07.239Z,17.7
2022-10-05T12:35:09.201Z,17.8
2022-10-05T12:37:05.131Z,17.8
2022-10-05T12:39:09.339Z,17.8
2022-10-05T12:41:09.437Z,17.8
2022-10-05T12:43:12.934Z,17.8
2022-10-05T12:45:07.263Z,17.8
2022-10-05T12:47:10.230Z,17.8
2022-10-05T12:49:07.302Z,17.9
2022-10-05T12:51:06.985Z,17.9
2022-10-05T12:53:06.572Z,17.9
2022-10-05T12:55:07.252Z,17.9
2022-10-05T12:57:06.930Z,17.9
2022-10-05T12:59:08.869Z,17.9
2022-10-05T13:01:08.166Z,17.9
2022-10-05T13:03:07.620Z,17.9
2022-10-05T13:05:10.338Z,17.9
2022-10-05T13:07:07.783Z,17.9
2022-10-05T13:09:05.229Z,17.9
2022-10-05T13:11:12.630Z,17.9
2022-10-05T13:13:09.106Z,18
2022-10-05T13:15:05.577Z,18
2022-10-05T13:17:07.546Z,18.1
2022-10-05T13:19:09.463Z,18.2
2022-10-05T13:21:09.221Z,18.3
2022-10-05T13:23:06.579Z,18.3
2022-10-05T13:25:06.863Z,18.3
2022-10-05T13:27:09.034Z,18.3
2022-10-05T13:29:09.276Z,18.4
2022-10-05T13:31:07.626Z,18.4
2022-10-05T13:33:08.233Z,18.4
2022-10-05T13:35:11.328Z,18.4
2022-10-05T13:37:08.027Z,18.4
2022-10-05T13:39:09.654Z,18.4
2022-10-05T13:41:09.394Z,18.4
2022-10-05T13:43:07.071Z,18.4
2022-10-05T13:45:12.011Z,18.4
2022-10-05T13:47:08.383Z,18.5
2022-10-05T13:49:06.830Z,18.5
2022-10-05T13:51:09.418Z,18.4
2022-10-05T13:53:07.161Z,18.4
2022-10-05T13:55:05.800Z,18.3
2022-10-05T13:57:07.363Z,18.3
2022-10-05T13:59:08.150Z,18.3
2022-10-05T14:01:07.002Z,18.3
2022-10-05T14:03:08.961Z,18.3
2022-10-05T14:05:07.153Z,18.2
2022-10-05T14:07:09.440Z,18.3
2022-10-05T14:09:05.586Z,18.3
2022-10-05T14:11:08.796Z,18.3
2022-10-05T14:13:06.820Z,18.3
2022-10-05T14:15:08.131Z,18.3
2022-10-05T14:17:08.435Z,18.3
2022-10-05T14:19:07.867Z,18.3
2022-10-05T14:21:08.295Z,18.3
2022-10-05T14:23:08.702Z,18.3
2022-10-05T14:25:12.558Z,18.3
2022-10-05T14:27:08.202Z,18.4
2022-10-05T14:29:08.306Z,18.4
2022-10-05T14:31:09.885Z,18.3
2022-10-05T14:33:06.728Z,18.4
2022-10-05T14:35:09.769Z,18.4
2022-10-05T14:37:06.062Z,18.4
2022-10-05T14:39:06.905Z,18.3
2022-10-05T14:41:08.420Z,18.3
2022-10-05T14:43:07.445Z,18.3
2022-10-05T14:45:07.500Z,18.4
2022-10-05T14:47:09.510Z,18.4
2022-10-05T14:49:09.714Z,18.4
2022-10-05T14:51:07.949Z,18.4
2022-10-05T14:53:10.005Z,18.4
2022-10-05T14:55:09.207Z,18.4
2022-10-05T14:57:09.352Z,18.4
2022-10-05T14:59:08.949Z,18.4
2022-10-05T15:01:09.281Z,18.4
2022-10-05T15:03:09.559Z,18.3
2022-10-05T15:05:08.504Z,18.3
2022-10-05T15:07:05.271Z,18.4
2022-10-05T15:09:16.897Z,18.4
2022-10-05T15:11:09.189Z,18.3
2022-10-05T15:13:11.423Z,18.3
2022-10-05T15:16:51.651Z,18.4
2022-10-05T15:18:49.839Z,18.4
2022-10-05T15:22:47.404Z,18.3
2022-10-05T15:24:49.826Z,18.3
2022-10-05T15:32:47.489Z,18.2
2022-10-05T15:34:49.854Z,18.1
2022-10-05T15:36:49.238Z,18.1
2022-10-05T15:38:47.837Z,18.1
2022-10-05T15:42:49.919Z,18
2022-10-05T15:44:48.016Z,18
2022-10-05T15:46:49.176Z,18
2022-10-05T15:48:50.086Z,18
2022-10-05T15:52:48.541Z,17.9
2022-10-05T15:56:47.206Z,17.9
2022-10-05T16:00:49.159Z,17.9
2022-10-05T16:02:46.966Z,17.9
2022-10-05T16:06:50.039Z,17.8
2022-10-05T16:08:48.090Z,17.8
2022-10-05T16:10:50.038Z,17.8
2022-10-05T16:14:47.010Z,17.8
2022-10-05T16:16:50.012Z,17.7
2022-10-05T16:18:50.214Z,17.7
2022-10-05T16:20:48.477Z,17.6
2022-10-05T16:22:49.998Z,17.6
2022-10-05T16:24:49.952Z,17.6
2022-10-05T16:26:49.818Z,17.5
2022-10-05T16:28:50.010Z,17.5
2022-10-05T16:32:45.094Z,17.5
2022-10-05T16:36:49.425Z,17.6
2022-10-05T16:38:48.255Z,17.6
2022-10-05T16:42:49.518Z,17.5
2022-10-05T16:44:47.797Z,17.5
2022-10-05T16:46:50.478Z,17.4
2022-10-05T16:50:50.350Z,17.4
2022-10-05T16:54:50.005Z,17.3
2022-10-05T16:56:48.993Z,17.3
2022-10-05T16:58:49.555Z,17.3
2022-10-05T17:00:49.632Z,17.2
2022-10-05T17:02:48.944Z,17.2
2022-10-05T17:04:49.891Z,17.2
2022-10-05T17:06:49.376Z,17.2
2022-10-05T17:08:48.450Z,17.2
2022-10-05T17:10:50.039Z,17.1
2022-10-05T17:12:50.374Z,17.1
2022-10-05T17:14:48.722Z,17
2022-10-05T17:16:50.064Z,17
2022-10-05T17:22:50.328Z,16.8
2022-10-05T17:24:49.628Z,16.7
2022-10-05T17:28:49.664Z,16.7
2022-10-05T17:30:47.006Z,16.5
2022-10-05T17:36:45.964Z,16.4
2022-10-05T17:38:49.984Z,16.3
2022-10-05T17:42:49.637Z,16.2
2022-10-05T17:46:50.188Z,16.2
2022-10-05T17:48:50.627Z,16.1
2022-10-05T17:50:50.413Z,16
2022-10-05T17:52:49.199Z,16
2022-10-05T17:54:49.289Z,16
2022-10-05T17:56:50.009Z,15.9
2022-10-05T18:00:48.273Z,15.8
2022-10-05T18:02:49.890Z,15.8
2022-10-05T18:06:47.461Z,15.7
2022-10-05T18:08:50.394Z,15.7
2022-10-05T18:10:46.126Z,15.7
2022-10-05T18:12:49.045Z,15.7
2022-10-05T18:14:50.076Z,15.5
2022-10-05T18:16:50.007Z,15.4
2022-10-05T18:18:46.545Z,15.4
2022-10-05T18:20:50.754Z,15.5
2022-10-05T18:24:47.151Z,15.5
2022-10-05T18:26:50.309Z,15.6
2022-10-05T18:28:50.028Z,15.6
2022-10-05T18:30:47.520Z,15.4
2022-10-05T18:32:50.137Z,15.4
2022-10-05T18:34:51.129Z,15.4
2022-10-05T18:36:47.292Z,15.4
2022-10-05T18:38:50.031Z,15.4
2022-10-05T18:40:50.133Z,15.3
2022-10-05T18:42:47.499Z,15.3
2022-10-05T18:44:50.152Z,15.3
2022-10-05T18:46:50.044Z,15.4
2022-10-05T18:48:48.535Z,15.3
2022-10-05T18:52:49.804Z,15.2
2022-10-05T18:54:46.897Z,15.1
2022-10-05T18:56:49.829Z,15.1
2022-10-05T18:58:53.266Z,15.2
2022-10-05T19:00:49.561Z,15.2
2022-10-05T19:02:50.018Z,15.2
2022-10-05T19:06:49.656Z,15.1
2022-10-05T19:10:49.821Z,15.2
2022-10-05T19:12:48.324Z,15.2
2022-10-05T19:14:50.101Z,15.1
2022-10-05T19:16:48.604Z,15
2022-10-05T19:18:45.912Z,14.9
2022-10-05T19:20:50.154Z,14.9
2022-10-05T19:22:50.046Z,14.9
2022-10-05T19:24:49.588Z,15
2022-10-05T19:28:50.009Z,15.1
2022-10-05T19:30:47.112Z,15.1
2022-10-05T19:32:48.983Z,15.1
2022-10-05T19:34:49.412Z,15.1
2022-10-05T19:36:49.952Z,15.1
2022-10-05T19:42:48.815Z,14.8
2022-10-05T19:44:49.945Z,14.7
2022-10-05T19:46:50.283Z,14.5
2022-10-05T19:48:45.661Z,14.4
2022-10-05T19:50:50.014Z,14.4
2022-10-05T19:54:46.867Z,14.3
2022-10-05T20:00:47.330Z,14.3
2022-10-05T20:02:50.490Z,14.2
2022-10-05T20:04:48.469Z,14.2
2022-10-05T20:06:46.916Z,14.2
2022-10-05T20:12:46.918Z,14.2
2022-10-05T20:14:49.877Z,14.1
2022-10-05T20:18:47.636Z,14.1
2022-10-05T20:24:48.649Z,14
2022-10-05T20:26:49.779Z,14
2022-10-05T20:30:48.344Z,14.1
2022-10-05T20:36:49.135Z,14.1
2022-10-05T20:40:50.038Z,14.1
2022-10-05T20:42:48.310Z,14.1
2022-10-05T20:46:50.350Z,14.1
2022-10-05T20:48:48.278Z,13.9
2022-10-05T20:52:50.101Z,14
2022-10-05T20:54:46.944Z,14
2022-10-05T20:56:48.847Z,14
2022-10-05T21:00:50.334Z,14
2022-10-05T21:04:49.951Z,14.1
2022-10-05T21:06:46.977Z,14.1
2022-10-05T21:08:49.948Z,14.1
2022-10-05T21:12:47.608Z,14.1
2022-10-05T21:14:49.580Z,14.1
2022-10-05T21:18:47.456Z,14.1
2022-10-05T21:22:50.713Z,14.1
2022-10-05T21:24:49.097Z,14
2022-10-05T21:26:50.135Z,14
2022-10-05T21:30:49.513Z,13.9
2022-10-05T21:32:50.297Z,14
2022-10-05T21:34:50.099Z,13.9
2022-10-05T21:36:47.346Z,13.9
2022-10-05T21:40:50.161Z,13.9
2022-10-05T21:42:47.370Z,13.9
2022-10-05T21:46:50.389Z,13.9
2022-10-05T21:48:48.178Z,13.8
2022-10-05T21:54:50.156Z,13.7
2022-10-05T21:56:49.439Z,13.8
2022-10-05T22:00:47.571Z,13.7
2022-10-05T22:02:54.089Z,13.8
2022-10-05T22:04:50.110Z,13.7
2022-10-05T22:06:50.631Z,13.6
2022-10-05T22:10:50.203Z,13.5
2022-10-05T22:12:49.979Z,13.5
2022-10-05T22:14:50.464Z,13.4
2022-10-05T22:16:50.534Z,13.4
2022-10-05T22:18:47.366Z,13.3
2022-10-05T22:22:47.337Z,13.4
2022-10-05T22:24:49.681Z,13.3
2022-10-05T22:26:49.002Z,13.2
2022-10-05T22:30:47.322Z,13.1
2022-10-05T22:32:49.878Z,13.1
2022-10-05T22:34:49.120Z,13.1
2022-10-05T22:36:48.489Z,13.1
2022-10-05T22:38:50.007Z,13.1
2022-10-05T22:42:46.947Z,13.1
2022-10-05T22:44:50.086Z,13.1
2022-10-05T22:46:50.211Z,13.2
2022-10-05T22:48:49.191Z,13.2
2022-10-05T22:50:49.969Z,13.1
2022-10-05T22:54:48.583Z,13.1
2022-10-05T22:56:50.394Z,13.1
2022-10-05T23:00:57.857Z,13.1
2022-10-05T23:02:48.889Z,13.1
2022-10-05T23:06:50.075Z,13
2022-10-05T23:10:50.094Z,13.1
2022-10-05T23:12:48.292Z,13
2022-10-05T23:14:50.158Z,13
2022-10-05T23:16:50.146Z,13.1
2022-10-05T23:18:45.570Z,13.1
2022-10-05T23:24:48.803Z,12.9
2022-10-05T23:28:50.512Z,12.9
2022-10-05T23:30:49.431Z,12.9
2022-10-05T23:32:50.248Z,13
2022-10-05T23:34:50.474Z,13
2022-10-05T23:36:48.528Z,13
2022-10-05T23:42:48.229Z,12.9
2022-10-05T23:46:49.760Z,12.8
2022-10-05T23:48:49.194Z,12.8
2022-10-05T23:50:50.247Z,12.7
2022-10-05T23:52:50.396Z,12.5
2022-10-05T23:54:48.266Z,12.5
2022-10-05T23:56:48.102Z,12.4
2022-10-05T23:58:50.134Z,12.4
